Chie Maru No.10 — JD2376 — position and weather

sailwx.info

Track history (hours):
 
Tides and Currents Weather Stations Pressure Air Temp Water Temp Dewpoint Dewpoint Depression Visibility Wind Speed Wind Dir Waves Ship Positions

Chie Maru No.10

Last reported at 2016-Jun-24 11:28 UTC. Time now 2016-Jun-26 08:26 UTC.
Position N 35°36' E 140°50'.

Length 72 m; draft 3.9 m.

Type: Ship. MMSI: 431000147.

Date/timePositionNaut miles runAvg speedWind from/ knotsBaromVisibWave heightAir tempDewpointWater temp
2016-Jun-24 11:28N 35°36' E 140°50'1112.2
2016-Jun-24 10:32N 35°27' E 140°42'1212.4
2016-Jun-24 09:33N 35°17' E 140°33'1312.2
2016-Jun-24 08:31N 35°07' E 140°23'1111.3
2016-Jun-24 07:33N 35°00' E 140°13'25 8.4
2016-Jun-24 04:33N 35°00' E 139°43'1313.2
2016-Jun-24 03:33N 35°13' E 139°46'1212.4
2016-Jun-24 02:33N 35°24' E 139°40'1 1.3
2016-Jun-24 01:33N 35°24' E 139°38'0 0.0
2016-Jun-24 00:33N 35°24' E 139°38'0 0.0
2016-Jun-23 23:33N 35°24' E 139°38'5 5.1
2016-Jun-23 22:33N 35°23' E 139°44'0 0.0
2016-Jun-23 21:31N 35°23' E 139°44'0 0.0
2016-Jun-23 20:28N 35°23' E 139°44'0 0.0
2016-Jun-23 19:31N 35°23' E 139°44'0 0.0
2016-Jun-23 18:31N 35°23' E 139°44'0 0.0
2016-Jun-23 17:31N 35°23' E 139°44'0 0.0
2016-Jun-23 16:31N 35°23' E 139°44'0 0.0
2016-Jun-23 15:31N 35°23' E 139°44'5 4.9
2016-Jun-23 14:33N 35°18' E 139°45'1211.8
2016-Jun-23 13:32N 35°06' E 139°45'57 4.0
2016-Jun-22 23:20N 35°04' E 138°35'48 3.2
2016-Jun-22 08:19N 35°03' E 139°34'1012.0
2016-Jun-22 07:30N 35°08' E 139°43'1010.2
2016-Jun-22 06:33N 35°18' E 139°44'1010.0
2016-Jun-22 05:33N 35°28' E 139°47'3 3.0
2016-Jun-22 04:33N 35°31' E 139°46'0 0.0
2016-Jun-22 03:33N 35°31' E 139°46'0 0.0
2016-Jun-22 02:33N 35°31' E 139°46'0 0.0
2016-Jun-22 01:33N 35°31' E 139°46'0 0.0
2016-Jun-22 00:33N 35°31' E 139°46'0 0.1
2016-Jun-21 23:34N 35°31' E 139°46'2 2.4
2016-Jun-21 22:31N 35°29' E 139°48'0 0.0
2016-Jun-21 21:31N 35°29' E 139°48'0 0.0
2016-Jun-21 20:31N 35°29' E 139°48'0 0.0
2016-Jun-21 19:31N 35°29' E 139°48'0 0.0
2016-Jun-21 18:31N 35°29' E 139°48'0 0.1
2016-Jun-21 17:28N 35°29' E 139°48'0 0.0
2016-Jun-21 16:28N 35°29' E 139°48'0 0.0
2016-Jun-21 15:31N 35°29' E 139°48'0 0.0
2016-Jun-21 14:31N 35°29' E 139°48'0 0.0
2016-Jun-21 13:31N 35°29' E 139°48'9 9.9
2016-Jun-21 12:33N 35°20' E 139°44'1111.4
2016-Jun-21 11:33N 35°08' E 139°46'19 1.0
2016-Jun-20 17:09N 34°50' E 139°42'1811.0
2016-Jun-20 15:30N 34°55' E 140°03'1010.9
2016-Jun-20 14:33N 35°01' E 140°14'58 8.3
2016-Jun-20 07:32N 35°55' E 140°41'0 0.0
2016-Jun-20 06:25N 35°55' E 140°41'0 0.0
2016-Jun-20 03:22N 35°55' E 140°41'0 0.0
2016-Jun-20 02:29N 35°55' E 140°41'0 0.0
2016-Jun-20 01:32N 35°55' E 140°41'5 1.2
2016-Jun-19 21:29N 35°60' E 140°43'0 0.0
2016-Jun-19 20:32N 35°60' E 140°43'0 0.0
2016-Jun-19 19:23N 35°59' E 140°43'3210.2
2016-Jun-19 16:14N 35°27' E 140°43'1513.1
2016-Jun-19 15:06N 35°16' E 140°33'813.6
2016-Jun-19 14:31N 35°09' E 140°26'1313.2
2016-Jun-19 13:33N 35°01' E 140°15'1413.4
2016-Jun-19 12:31N 34°53' E 140°01'1212.3
2016-Jun-19 11:32N 34°50' E 139°46'1912.8
2016-Jun-19 10:05N 34°50' E 139°24'14 0.7
2016-Jun-18 14:23N 34°50' E 139°41'2311.0
2016-Jun-18 12:18N 34°57' E 140°07'811.0
2016-Jun-18 11:33N 35°01' E 140°16'3010.0
2016-Jun-18 08:33N 35°24' E 140°40'1110.9
2016-Jun-18 07:33N 35°32' E 140°48'24 7.7
2016-Jun-18 04:30N 35°55' E 140°41'1 0.1
2016-Jun-17 23:29N 35°56' E 140°42'4 4.3
2016-Jun-17 22:33N 35°60' E 140°43'3 2.7
2016-Jun-17 21:31N 36°00' E 140°46'1110.6
2016-Jun-17 20:29N 36°11' E 140°47'1010.5
2016-Jun-17 19:33N 36°21' E 140°51'3712.0
2016-Jun-17 16:30N 36°56' E 141°04'55 2.1
2016-Jun-16 14:30N 36°03' E 140°44'8 8.7
2016-Jun-16 13:33N 35°55' E 140°41'0 0.0
2016-Jun-16 12:33N 35°55' E 140°41'0 0.0
2016-Jun-16 11:30N 35°55' E 140°41'0 0.0
2016-Jun-16 10:33N 35°55' E 140°41'0 0.0
2016-Jun-16 09:29N 35°55' E 140°41'0 0.0
2016-Jun-16 08:32N 35°55' E 140°41'1 1.0
2016-Jun-16 07:29N 35°56' E 140°42'  
Track history (hours):
 
Tides and Currents Weather Stations Pressure Air Temp Water Temp Dewpoint Dewpoint Depression Visibility Wind Speed Wind Dir Waves Ship Positions

Chie Maru No.10

Last reported at 2016-Jun-24 11:28 UTC. Time now 2016-Jun-26 08:26 UTC.
Position N 35°36' E 140°50'.

Length 72 m; draft 3.9 m.

Type: Ship. MMSI: 431000147.

Date/timePositionNaut miles runAvg speedWind from/ knotsBaromVisibWave heightAir tempDewpointWater temp
2016-Jun-24 11:28N 35°36' E 140°50'1112.2
2016-Jun-24 10:32N 35°27' E 140°42'1212.4
2016-Jun-24 09:33N 35°17' E 140°33'1312.2
2016-Jun-24 08:31N 35°07' E 140°23'1111.3
2016-Jun-24 07:33N 35°00' E 140°13'25 8.4
2016-Jun-24 04:33N 35°00' E 139°43'1313.2
2016-Jun-24 03:33N 35°13' E 139°46'1212.4
2016-Jun-24 02:33N 35°24' E 139°40'1 1.3
2016-Jun-24 01:33N 35°24' E 139°38'0 0.0
2016-Jun-24 00:33N 35°24' E 139°38'0 0.0
2016-Jun-23 23:33N 35°24' E 139°38'5 5.1
2016-Jun-23 22:33N 35°23' E 139°44'0 0.0
2016-Jun-23 21:31N 35°23' E 139°44'0 0.0
2016-Jun-23 20:28N 35°23' E 139°44'0 0.0
2016-Jun-23 19:31N 35°23' E 139°44'0 0.0
2016-Jun-23 18:31N 35°23' E 139°44'0 0.0
2016-Jun-23 17:31N 35°23' E 139°44'0 0.0
2016-Jun-23 16:31N 35°23' E 139°44'0 0.0
2016-Jun-23 15:31N 35°23' E 139°44'5 4.9
2016-Jun-23 14:33N 35°18' E 139°45'1211.8
2016-Jun-23 13:32N 35°06' E 139°45'57 4.0
2016-Jun-22 23:20N 35°04' E 138°35'48 3.2
2016-Jun-22 08:19N 35°03' E 139°34'1012.0
2016-Jun-22 07:30N 35°08' E 139°43'1010.2
2016-Jun-22 06:33N 35°18' E 139°44'1010.0
2016-Jun-22 05:33N 35°28' E 139°47'3 3.0
2016-Jun-22 04:33N 35°31' E 139°46'0 0.0
2016-Jun-22 03:33N 35°31' E 139°46'0 0.0
2016-Jun-22 02:33N 35°31' E 139°46'0 0.0
2016-Jun-22 01:33N 35°31' E 139°46'0 0.0
2016-Jun-22 00:33N 35°31' E 139°46'0 0.1
2016-Jun-21 23:34N 35°31' E 139°46'2 2.4
2016-Jun-21 22:31N 35°29' E 139°48'0 0.0
2016-Jun-21 21:31N 35°29' E 139°48'0 0.0
2016-Jun-21 20:31N 35°29' E 139°48'0 0.0
2016-Jun-21 19:31N 35°29' E 139°48'0 0.0
2016-Jun-21 18:31N 35°29' E 139°48'0 0.1
2016-Jun-21 17:28N 35°29' E 139°48'0 0.0
2016-Jun-21 16:28N 35°29' E 139°48'0 0.0
2016-Jun-21 15:31N 35°29' E 139°48'0 0.0
2016-Jun-21 14:31N 35°29' E 139°48'0 0.0
2016-Jun-21 13:31N 35°29' E 139°48'9 9.9
2016-Jun-21 12:33N 35°20' E 139°44'1111.4
2016-Jun-21 11:33N 35°08' E 139°46'19 1.0
2016-Jun-20 17:09N 34°50' E 139°42'1811.0
2016-Jun-20 15:30N 34°55' E 140°03'1010.9
2016-Jun-20 14:33N 35°01' E 140°14'58 8.3
2016-Jun-20 07:32N 35°55' E 140°41'0 0.0
2016-Jun-20 06:25N 35°55' E 140°41'0 0.0
2016-Jun-20 03:22N 35°55' E 140°41'0 0.0
2016-Jun-20 02:29N 35°55' E 140°41'0 0.0
2016-Jun-20 01:32N 35°55' E 140°41'5 1.2
2016-Jun-19 21:29N 35°60' E 140°43'0 0.0
2016-Jun-19 20:32N 35°60' E 140°43'0 0.0
2016-Jun-19 19:23N 35°59' E 140°43'3210.2
2016-Jun-19 16:14N 35°27' E 140°43'1513.1
2016-Jun-19 15:06N 35°16' E 140°33'813.6
2016-Jun-19 14:31N 35°09' E 140°26'1313.2
2016-Jun-19 13:33N 35°01' E 140°15'1413.4
2016-Jun-19 12:31N 34°53' E 140°01'1212.3
2016-Jun-19 11:32N 34°50' E 139°46'1912.8
2016-Jun-19 10:05N 34°50' E 139°24'14 0.7
2016-Jun-18 14:23N 34°50' E 139°41'2311.0
2016-Jun-18 12:18N 34°57' E 140°07'811.0
2016-Jun-18 11:33N 35°01' E 140°16'3010.0
2016-Jun-18 08:33N 35°24' E 140°40'1110.9
2016-Jun-18 07:33N 35°32' E 140°48'24 7.7
2016-Jun-18 04:30N 35°55' E 140°41'1 0.1
2016-Jun-17 23:29N 35°56' E 140°42'4 4.3
2016-Jun-17 22:33N 35°60' E 140°43'3 2.7
2016-Jun-17 21:31N 36°00' E 140°46'1110.6
2016-Jun-17 20:29N 36°11' E 140°47'1010.5
2016-Jun-17 19:33N 36°21' E 140°51'3712.0
2016-Jun-17 16:30N 36°56' E 141°04'55 2.1
2016-Jun-16 14:30N 36°03' E 140°44'8 8.7
2016-Jun-16 13:33N 35°55' E 140°41'0 0.0
2016-Jun-16 12:33N 35°55' E 140°41'0 0.0
2016-Jun-16 11:30N 35°55' E 140°41'0 0.0
2016-Jun-16 10:33N 35°55' E 140°41'0 0.0
2016-Jun-16 09:29N 35°55' E 140°41'0 0.0
2016-Jun-16 08:32N 35°55' E 140°41'1 1.0
2016-Jun-16 07:29N 35°56' E 140°42'  

Dump ship's entire track history